createdAt,value
2023-01-21T00:02:01.051Z,74.65
2023-01-21T00:05:07.181Z,74.68
2023-01-21T00:08:16.156Z,74.61
2023-01-21T00:11:28.518Z,74.57
2023-01-21T00:14:35.003Z,74.58
2023-01-21T00:17:43.550Z,74.62
2023-01-21T00:20:48.695Z,74.61
2023-01-21T00:24:00.877Z,74.48
2023-01-21T00:27:07.062Z,74.49
2023-01-21T00:30:12.507Z,74.51
2023-01-21T00:33:21.008Z,74.57
2023-01-21T00:36:29.273Z,74.49
2023-01-21T00:39:34.337Z,74.57
2023-01-21T00:42:40.994Z,74.58
2023-01-21T00:45:46.836Z,74.55
2023-01-21T00:48:53.892Z,74.38
2023-01-21T00:52:01.792Z,74.46
2023-01-21T00:55:07.566Z,74.55
2023-01-21T00:58:12.880Z,74.63
2023-01-21T01:01:23.902Z,74.69
2023-01-21T01:04:29.371Z,74.66
2023-01-21T01:07:35.659Z,74.48
2023-01-21T01:10:42.667Z,74.47
2023-01-21T01:13:50.169Z,74.42
2023-01-21T01:16:57.299Z,74.43
2023-01-21T01:20:05.460Z,74.52
2023-01-21T01:23:12.960Z,74.54
2023-01-21T01:26:22.864Z,74.51
2023-01-21T01:29:28.082Z,74.24
2023-01-21T01:32:33.827Z,74.27
2023-01-21T01:35:40.296Z,74.39
2023-01-21T01:38:46.247Z,74.38
2023-01-21T01:41:52.950Z,74.35
2023-01-21T01:45:19.659Z,74.35
2023-01-21T01:48:30.633Z,74.37
2023-01-21T01:51:40.211Z,74.47
2023-01-21T01:54:51.190Z,74.39
2023-01-21T01:58:01.058Z,74.34
2023-01-21T02:01:06.227Z,74.28
2023-01-21T02:04:12.109Z,74.36
2023-01-21T02:07:18.938Z,74.38
2023-01-21T02:10:27.667Z,74.38
2023-01-21T02:13:35.859Z,74.32
2023-01-21T02:16:53.528Z,74.34
2023-01-21T02:20:28.156Z,74.41
2023-01-21T02:23:40.280Z,74.41
2023-01-21T02:27:30.401Z,74.38
2023-01-21T02:31:06.532Z,74.25
2023-01-21T02:34:29.082Z,74.00
2023-01-21T02:38:01.652Z,74.01
2023-01-21T02:41:18.477Z,74.06
2023-01-21T02:44:27.901Z,74.22
2023-01-21T02:48:15.897Z,74.37
2023-01-21T02:51:22.158Z,74.35
2023-01-21T02:54:49.317Z,74.22
2023-01-21T02:57:59.826Z,74.22
2023-01-21T03:01:35.971Z,74.20
2023-01-21T03:05:16.992Z,74.17
2023-01-21T03:08:39.559Z,74.23
2023-01-21T03:11:44.670Z,74.17
2023-01-21T03:15:18.269Z,74.25
2023-01-21T03:18:40.568Z,74.16
2023-01-21T03:21:45.524Z,74.17
2023-01-21T03:24:52.511Z,73.92
2023-01-21T03:28:00.446Z,73.97
2023-01-21T03:31:11.763Z,73.90
2023-01-21T03:34:20.660Z,73.78
2023-01-21T03:37:32.098Z,73.89
2023-01-21T03:40:51.903Z,73.93
2023-01-21T03:43:57.824Z,73.99
2023-01-21T03:47:18.977Z,73.84
2023-01-21T03:50:37.712Z,73.83
2023-01-21T03:53:44.078Z,73.79
2023-01-21T03:56:49.655Z,73.68
2023-01-21T03:59:55.777Z,73.72
2023-01-21T04:03:03.594Z,73.66
2023-01-21T04:06:09.774Z,73.57
2023-01-21T04:09:15.333Z,73.65
2023-01-21T04:12:21.935Z,73.57
2023-01-21T04:15:26.858Z,73.46
2023-01-21T04:18:32.683Z,73.54
2023-01-21T04:21:37.718Z,73.67
2023-01-21T04:24:43.913Z,73.65
2023-01-21T04:27:50.032Z,73.61
2023-01-21T04:30:55.936Z,73.59
2023-01-21T04:34:02.110Z,73.58
2023-01-21T04:37:08.674Z,73.45
2023-01-21T04:40:14.459Z,73.50
2023-01-21T04:43:20.679Z,73.51
2023-01-21T04:46:26.528Z,73.54
2023-01-21T04:49:31.921Z,73.51
2023-01-21T04:52:37.758Z,73.45
2023-01-21T04:55:44.927Z,73.29
2023-01-21T04:58:50.419Z,73.22
2023-01-21T05:01:58.533Z,73.29
2023-01-21T05:05:05.430Z,73.41
2023-01-21T05:08:11.718Z,73.39
2023-01-21T05:11:17.705Z,73.21
2023-01-21T05:14:23.783Z,73.14
2023-01-21T05:17:29.931Z,73.00
2023-01-21T05:20:37.503Z,73.11
2023-01-21T05:23:43.859Z,73.18
2023-01-21T05:26:48.897Z,73.19
2023-01-21T05:29:56.222Z,73.16
2023-01-21T05:33:08.893Z,73.02
2023-01-21T05:36:14.730Z,72.98
2023-01-21T05:39:21.728Z,72.91
2023-01-21T05:42:27.015Z,72.97
2023-01-21T05:45:33.083Z,73.04
2023-01-21T05:48:38.836Z,73.11
2023-01-21T05:51:43.826Z,73.14
2023-01-21T05:55:00.942Z,73.16
2023-01-21T05:57:57.227Z,73.19
2023-01-21T06:01:03.683Z,73.02
2023-01-21T06:04:02.331Z,72.90
2023-01-21T06:07:08.228Z,72.82
2023-01-21T06:10:13.073Z,72.77
2023-01-21T06:13:19.172Z,72.79
2023-01-21T06:16:24.751Z,72.92
2023-01-21T06:19:30.966Z,72.88
2023-01-21T06:22:36.863Z,72.77
2023-01-21T06:25:35.593Z,72.78
2023-01-21T06:28:40.853Z,72.75
2023-01-21T06:31:47.263Z,72.66
2023-01-21T06:34:53.826Z,72.57
2023-01-21T06:38:01.722Z,72.44
2023-01-21T06:41:09.620Z,72.60
2023-01-21T06:44:15.892Z,72.57
2023-01-21T06:47:21.810Z,72.42
2023-01-21T06:50:30.652Z,72.36
2023-01-21T06:53:41.652Z,72.35
2023-01-21T06:56:51.721Z,72.44
2023-01-21T06:59:57.863Z,72.44
2023-01-21T07:03:04.233Z,72.41
2023-01-21T07:06:11.071Z,72.40
2023-01-21T07:09:18.187Z,72.21
2023-01-21T07:12:23.912Z,72.16
2023-01-21T07:15:32.474Z,72.13
2023-01-21T07:18:38.547Z,72.12
2023-01-21T07:21:43.918Z,71.94
2023-01-21T07:24:52.000Z,71.85
2023-01-21T07:27:59.032Z,72.03
2023-01-21T07:31:05.228Z,72.21
2023-01-21T07:34:12.342Z,72.09
2023-01-21T07:37:17.598Z,72.00
2023-01-21T07:40:26.618Z,72.01
2023-01-21T07:43:35.922Z,71.89
2023-01-21T07:46:41.585Z,71.82
2023-01-21T07:49:48.735Z,71.77
2023-01-21T07:52:55.648Z,71.92
2023-01-21T07:56:01.067Z,71.95
2023-01-21T07:59:06.048Z,72.02
2023-01-21T08:02:13.024Z,71.84
2023-01-21T08:05:20.726Z,71.79
2023-01-21T08:08:26.944Z,71.95
2023-01-21T08:11:34.061Z,71.80
2023-01-21T08:14:39.061Z,71.74
2023-01-21T08:17:44.897Z,71.57
2023-01-21T08:20:51.428Z,71.66
2023-01-21T08:23:57.948Z,71.60
2023-01-21T08:27:03.859Z,71.65
2023-01-21T08:30:09.467Z,71.61
2023-01-21T08:33:15.631Z,71.53
2023-01-21T08:36:25.056Z,71.55
2023-01-21T08:39:30.921Z,71.55
2023-01-21T08:42:38.473Z,71.69
2023-01-21T08:45:44.254Z,71.44
2023-01-21T08:48:49.903Z,71.34
2023-01-21T08:51:56.694Z,71.34
2023-01-21T08:55:01.820Z,71.26
2023-01-21T08:58:08.600Z,71.14
2023-01-21T09:01:25.982Z,71.18
2023-01-21T09:04:26.090Z,71.20
2023-01-21T09:07:19.129Z,71.16
2023-01-21T09:10:26.855Z,71.04
2023-01-21T09:13:32.584Z,71.05
2023-01-21T09:16:43.020Z,70.95
2023-01-21T09:19:49.675Z,70.84
2023-01-21T09:22:56.454Z,70.88
2023-01-21T09:25:56.611Z,70.92
2023-01-21T09:29:12.171Z,71.07
2023-01-21T09:32:18.833Z,71.22
2023-01-21T09:35:26.092Z,71.35
2023-01-21T09:38:31.716Z,71.39
2023-01-21T09:41:46.587Z,71.39
2023-01-21T09:44:59.945Z,71.20
2023-01-21T09:48:05.198Z,71.21
2023-01-21T09:51:12.349Z,71.33
2023-01-21T09:54:18.541Z,71.35
2023-01-21T09:57:55.041Z,71.34
2023-01-21T10:01:09.883Z,71.33
2023-01-21T10:04:13.283Z,71.44
2023-01-21T10:07:35.364Z,71.45
2023-01-21T10:11:04.586Z,71.48
2023-01-21T10:14:46.769Z,71.43
2023-01-21T10:18:23.715Z,71.45
2023-01-21T10:21:48.167Z,71.33
2023-01-21T10:24:58.627Z,71.21
2023-01-21T10:28:06.590Z,71.36
2023-01-21T10:31:37.523Z,71.38
2023-01-21T10:34:47.203Z,71.31
2023-01-21T10:38:12.171Z,71.13
2023-01-21T10:41:49.553Z,70.99
2023-01-21T10:45:18.963Z,71.14
2023-01-21T10:48:34.944Z,70.96
2023-01-21T10:51:48.689Z,71.07
2023-01-21T10:55:10.349Z,71.05
2023-01-21T10:58:44.382Z,71.17
2023-01-21T11:02:02.107Z,71.17
2023-01-21T11:05:08.957Z,71.06
2023-01-21T11:08:14.635Z,71.13
2023-01-21T11:11:21.516Z,70.97
2023-01-21T11:14:27.519Z,70.86
2023-01-21T11:17:46.070Z,70.95
2023-01-21T11:20:57.210Z,70.85
2023-01-21T11:24:17.131Z,70.74
2023-01-21T11:27:33.787Z,70.85
2023-01-21T11:30:51.951Z,70.90
2023-01-21T11:34:00.739Z,70.94
2023-01-21T11:37:20.665Z,71.15
2023-01-21T11:40:36.160Z,71.21
2023-01-21T11:44:01.517Z,71.12
2023-01-21T11:47:07.797Z,71.14
2023-01-21T11:50:19.976Z,71.30
2023-01-21T11:53:32.494Z,71.23
2023-01-21T11:56:39.127Z,71.13
2023-01-21T11:59:50.724Z,71.15
2023-01-21T12:03:01.708Z,71.35
2023-01-21T12:06:07.473Z,71.33
2023-01-21T12:09:18.422Z,71.36
2023-01-21T12:12:46.697Z,71.33
2023-01-21T12:16:22.306Z,71.10
2023-01-21T12:19:50.641Z,70.97
2023-01-21T12:23:06.339Z,71.10
2023-01-21T12:26:28.744Z,71.23
2023-01-21T12:29:44.554Z,71.34
2023-01-21T12:32:57.014Z,71.33
2023-01-21T12:36:06.992Z,71.30
2023-01-21T12:39:29.862Z,71.27
2023-01-21T12:42:45.527Z,71.22
2023-01-21T12:46:02.924Z,71.29
2023-01-21T12:49:16.673Z,71.35
2023-01-21T12:52:45.825Z,71.31
2023-01-21T12:56:30.651Z,71.26
2023-01-21T12:59:43.546Z,70.92
2023-01-21T13:03:11.185Z,71.01
2023-01-21T13:06:53.957Z,70.97
2023-01-21T13:10:00.222Z,70.98
2023-01-21T13:12:53.144Z,71.14
2023-01-21T13:16:00.871Z,71.16
2023-01-21T13:19:08.382Z,71.27
2023-01-21T13:22:33.794Z,71.34
2023-01-21T13:25:49.950Z,71.17
2023-01-21T13:29:06.548Z,70.97
2023-01-21T13:32:40.106Z,71.15
2023-01-21T13:36:01.477Z,71.23
2023-01-21T13:39:19.646Z,71.14
2023-01-21T13:42:56.737Z,71.10
2023-01-21T13:46:32.515Z,71.23
2023-01-21T13:50:20.043Z,71.19
2023-01-21T13:53:41.550Z,71.13
2023-01-21T13:57:10.048Z,71.21
2023-01-21T14:00:37.395Z,71.34
2023-01-21T14:04:02.811Z,71.42
2023-01-21T14:07:21.214Z,71.38
2023-01-21T14:10:37.831Z,71.48
2023-01-21T14:14:05.994Z,71.46
2023-01-21T14:17:59.275Z,71.49
2023-01-21T14:21:31.243Z,71.49
2023-01-21T14:24:45.184Z,71.36
2023-01-21T14:28:22.993Z,71.22
2023-01-21T14:31:33.898Z,71.39
2023-01-21T14:34:47.052Z,71.43
2023-01-21T14:38:08.216Z,71.33
2023-01-21T14:41:25.399Z,71.24
2023-01-21T14:44:52.015Z,71.31
2023-01-21T14:48:09.200Z,71.37
2023-01-21T14:51:27.781Z,71.49
2023-01-21T14:54:40.416Z,71.53
2023-01-21T14:57:54.710Z,71.43
2023-01-21T15:01:02.468Z,71.39
2023-01-21T15:04:09.161Z,71.39
2023-01-21T15:07:16.970Z,71.30
2023-01-21T15:10:31.747Z,71.35
2023-01-21T15:13:52.027Z,71.38
2023-01-21T15:16:58.766Z,71.44
2023-01-21T15:20:08.906Z,71.54
2023-01-21T15:23:44.323Z,71.51
2023-01-21T15:26:48.943Z,71.55
2023-01-21T15:30:18.824Z,71.45
2023-01-21T15:33:26.577Z,71.54
2023-01-21T15:36:39.786Z,71.74
2023-01-21T15:39:48.128Z,71.88
2023-01-21T15:43:35.179Z,71.78
2023-01-21T15:46:47.972Z,71.73
2023-01-21T15:50:26.790Z,71.80
2023-01-21T15:54:28.248Z,71.65
2023-01-21T15:58:07.580Z,71.54
2023-01-21T16:01:47.250Z,71.69
2023-01-21T16:05:15.557Z,71.60
2023-01-21T16:08:37.334Z,71.62
2023-01-21T16:12:04.065Z,71.59
2023-01-21T16:15:33.121Z,71.64
2023-01-21T16:19:11.223Z,71.70
2023-01-21T16:22:18.363Z,71.71
2023-01-21T16:25:29.448Z,71.85
2023-01-21T16:28:35.687Z,71.84
2023-01-21T16:31:44.595Z,71.87
2023-01-21T16:34:55.389Z,71.85
2023-01-21T16:38:03.650Z,71.66
2023-01-21T16:41:24.962Z,71.55
2023-01-21T16:44:32.550Z,71.49
2023-01-21T16:47:50.911Z,71.43
2023-01-21T16:50:58.338Z,71.50
2023-01-21T16:54:07.082Z,71.68
2023-01-21T16:57:15.202Z,71.81
2023-01-21T17:00:24.692Z,71.91
2023-01-21T17:03:25.750Z,71.74
2023-01-21T17:06:35.730Z,71.77
2023-01-21T17:09:45.633Z,71.76
2023-01-21T17:12:54.673Z,71.69
2023-01-21T17:16:07.388Z,71.77
2023-01-21T17:19:23.201Z,71.81
2023-01-21T17:22:37.784Z,71.82
2023-01-21T17:25:43.629Z,71.83
2023-01-21T17:29:09.950Z,71.78
2023-01-21T17:32:21.647Z,71.77
2023-01-21T17:35:31.844Z,71.62
2023-01-21T17:38:44.415Z,71.57
2023-01-21T17:41:56.049Z,71.57
2023-01-21T17:45:04.687Z,71.63
2023-01-21T17:48:14.581Z,71.65
2023-01-21T17:51:29.935Z,71.63
2023-01-21T17:54:40.166Z,71.52
2023-01-21T17:57:50.103Z,71.59
2023-01-21T18:01:01.600Z,71.57
2023-01-21T18:04:07.327Z,71.57
2023-01-21T18:07:13.928Z,71.74
2023-01-21T18:10:30.630Z,71.83
2023-01-21T18:13:38.028Z,71.84
2023-01-21T18:16:44.475Z,71.91
2023-01-21T18:19:57.078Z,71.86
2023-01-21T18:23:04.380Z,71.78
2023-01-21T18:26:10.219Z,71.87
2023-01-21T18:29:16.432Z,71.87
2023-01-21T18:32:24.108Z,71.97
2023-01-21T18:35:29.655Z,72.08
2023-01-21T18:38:31.593Z,72.00
2023-01-21T18:41:24.683Z,71.86
2023-01-21T18:44:30.931Z,71.99
2023-01-21T18:47:36.804Z,71.96
2023-01-21T18:50:43.644Z,71.94
2023-01-21T18:53:50.559Z,71.97
2023-01-21T18:56:57.907Z,72.02
2023-01-21T19:00:07.551Z,72.06
2023-01-21T19:03:15.272Z,72.12
2023-01-21T19:06:30.408Z,72.20
2023-01-21T19:09:40.598Z,72.10
2023-01-21T19:12:49.029Z,71.98
2023-01-21T19:15:55.335Z,71.83
2023-01-21T19:19:01.044Z,71.97
2023-01-21T19:22:05.890Z,72.00
2023-01-21T19:25:11.609Z,71.87
2023-01-21T19:28:18.134Z,71.95
2023-01-21T19:31:27.559Z,71.86
2023-01-21T19:34:35.871Z,71.90
2023-01-21T19:37:44.343Z,71.90
2023-01-21T19:40:52.554Z,71.95
2023-01-21T19:43:59.169Z,71.86
2023-01-21T19:47:05.575Z,71.88
2023-01-21T19:50:16.214Z,71.94
2023-01-21T19:53:24.057Z,71.99
2023-01-21T19:56:31.475Z,72.10
2023-01-21T19:59:37.298Z,72.26
2023-01-21T20:02:43.411Z,72.29
2023-01-21T20:05:49.484Z,72.37
2023-01-21T20:08:54.849Z,72.33
2023-01-21T20:12:03.367Z,72.05
2023-01-21T20:15:11.206Z,71.90
2023-01-21T20:18:19.815Z,71.93
2023-01-21T20:21:26.657Z,72.10
2023-01-21T20:24:34.207Z,72.08
2023-01-21T20:27:41.136Z,71.99
2023-01-21T20:30:41.337Z,71.92
2023-01-21T20:33:36.091Z,72.08
2023-01-21T20:36:42.446Z,72.19
2023-01-21T20:39:49.371Z,72.06
2023-01-21T20:42:59.262Z,71.97
2023-01-21T20:46:07.190Z,72.00
2023-01-21T20:49:14.008Z,72.02
2023-01-21T20:52:21.312Z,72.03
2023-01-21T20:55:30.579Z,72.14
2023-01-21T20:58:37.053Z,72.24
2023-01-21T21:01:45.199Z,72.42
2023-01-21T21:04:51.458Z,72.54
2023-01-21T21:07:59.125Z,72.44
2023-01-21T21:11:06.853Z,72.41
2023-01-21T21:14:13.104Z,72.38
2023-01-21T21:17:22.229Z,72.57
2023-01-21T21:20:35.554Z,72.61
2023-01-21T21:23:43.389Z,72.64
2023-01-21T21:26:50.688Z,72.63
2023-01-21T21:30:01.691Z,72.75
2023-01-21T21:33:11.891Z,72.68
2023-01-21T21:36:19.730Z,72.74
2023-01-21T21:39:28.871Z,72.79
2023-01-21T21:42:53.513Z,72.83
2023-01-21T21:46:18.511Z,72.73
2023-01-21T21:49:24.471Z,72.71
2023-01-21T21:52:31.224Z,72.68
2023-01-21T21:55:38.526Z,72.76
2023-01-21T21:58:45.419Z,72.66
2023-01-21T22:01:50.802Z,72.65
2023-01-21T22:04:59.645Z,72.52
2023-01-21T22:08:08.359Z,72.45
2023-01-21T22:11:15.797Z,72.51
2023-01-21T22:14:21.164Z,72.72
2023-01-21T22:17:27.762Z,72.63
2023-01-21T22:20:37.459Z,72.57
2023-01-21T22:23:45.902Z,72.49
2023-01-21T22:26:51.121Z,72.54
2023-01-21T22:30:01.296Z,72.62
2023-01-21T22:33:07.959Z,72.66
2023-01-21T22:36:19.354Z,72.59
2023-01-21T22:39:25.637Z,72.56
2023-01-21T22:42:24.684Z,72.57
2023-01-21T22:45:29.540Z,72.82
2023-01-21T22:48:34.944Z,73.07
2023-01-21T22:51:42.079Z,73.19
2023-01-21T22:54:51.207Z,73.29
2023-01-21T22:58:00.190Z,73.08
2023-01-21T23:01:05.214Z,73.15
2023-01-21T23:04:11.680Z,73.15
2023-01-21T23:07:18.417Z,73.12
2023-01-21T23:10:25.177Z,73.21
2023-01-21T23:13:34.077Z,73.19
2023-01-21T23:16:41.170Z,73.16
2023-01-21T23:19:46.926Z,73.18
2023-01-21T23:22:53.943Z,73.25
2023-01-21T23:26:00.444Z,73.28
2023-01-21T23:29:09.696Z,73.21
2023-01-21T23:32:18.041Z,73.19
2023-01-21T23:35:28.383Z,73.25
2023-01-21T23:38:34.733Z,73.21
2023-01-21T23:41:41.475Z,73.26
2023-01-21T23:44:47.386Z,73.30
2023-01-21T23:47:54.826Z,73.32
2023-01-21T23:51:01.003Z,73.28
2023-01-21T23:54:07.952Z,73.06
2023-01-21T23:57:14.711Z,73.14
